Capitol Logistics 430


KSMF
Sacramento International Airport
Sacramento, California, US
KSEA
Seattle-Tacoma International Airport
Seattle, Washington, US

Activity Log

Date Flight Route Aircraft Duration
08/02/2020 CPX206 RBL J126 OED J1 SEA B763 1h 46m
05/19/2020 CPX206 KSMF/34L RBL J65 LMT HAWKZ7 KSEA/I16L B763 1h 43m
04/30/2020 CPX206 RBL J126 OED J1 SEA B763 1h 52m
03/30/2020 CPX206 RBL LMT HAWKZ7 B763 1h 42m
09/25/2019 CPX206 DUDES9 FMG J5 LKV HAWKZ7 B763 1h 48m
06/24/2019 CPX430 RBL J126 OED J1 SEA B752 1h 33m

Route Details

Aircraft Information
Primary: Boeing 757-200SF
Backup: Boeing 737-800BCF
Route Data
Distance: 527nm
Sched. Duration: 1h 30m
Avg. Duration: 1h 44m (+14m)
Times Flown: 6
Recm'd Route: RBL J126 OED J1 SEA
Planned Altitude: 36,000ft
Origin Wx: KSMF 221953Z 34014G22KT 8SM CLR 24/M01 A2987 RMK AO2 SLP113 T02391011
Dest. Wx: KSEA 221953Z VRB03KT 10SM BKN022 BKN250 11/04 A3040 RMK AO2 SLP304 T01060039
Notes:

Financial History
Total Freight: 575,284lbs
Average Load: 95,881lbs/flt
Fuel Used: 103,656lbs
Avg. Fuel Used: 17,276lbs/flt
Fuel Expense: $112,985
Avg. Fuel Expense: $18,831
Avg. Fuel Cost: $1.09/lbs
Total Gross Income: $763,729
Pilot Pay: $1,214
Total Expenses: $82,795
Total Revenue: $565,622
Average Revenue: $127,288.08